Time;durP1;ratioP1;P1;durP2;ratioP2;P2;SDS_P1;SDS_P2;PMS_P1;PMS_P2;Temp;Humidity;BMP_temperature;BMP_pressure;BME280_temperature;BME280_humidity;BME280_pressure;Samples;Min_cycle;Max_cycle;Signal;HPM_P1;HPM_P2
2023/09/13 00:02:35;;;;;;;2.30;1.30;;;27.20;92.30;;;;;;10042588;28;20511;-75
2023/09/13 00:07:25;;;;;;;2.63;1.50;;;27.10;92.40;;;;;;10039639;28;20504;-76
2023/09/13 00:12:19;;;;;;;3.58;1.42;;;27.10;92.40;;;;;;10036850;28;20036;-76
2023/09/13 00:17:10;;;;;;;3.03;1.53;;;27.20;92.30;;;;;;10023915;28;20312;-75
2023/09/13 00:22:00;;;;;;;1.52;1.20;;;27.20;92.30;;;;;;10024745;28;20364;-74
2023/09/13 00:26:51;;;;;;;2.45;1.90;;;27.00;92.60;;;;;;10019297;28;20026;-76
2023/09/13 00:31:42;;;;;;;2.60;1.60;;;27.00;92.40;;;;;;10049942;28;20022;-77
2023/09/13 00:36:35;;;;;;;3.22;1.48;;;27.00;92.50;;;;;;10045293;28;20124;-76
2023/09/13 00:41:26;;;;;;;2.23;1.53;;;26.90;92.70;;;;;;10040267;28;20041;-76
2023/09/13 00:46:17;;;;;;;3.90;1.67;;;26.80;92.80;;;;;;10041578;28;20025;-76
2023/09/13 00:51:09;;;;;;;3.63;1.75;;;26.70;93.00;;;;;;10015217;28;20048;-77
2023/09/13 00:56:01;;;;;;;2.78;1.63;;;26.80;93.00;;;;;;10025155;28;20139;-76
2023/09/13 01:00:53;;;;;;;2.03;1.75;;;26.80;93.00;;;;;;10041779;28;20427;-75
2023/09/13 01:05:46;;;;;;;3.92;1.90;;;26.80;92.90;;;;;;10034857;28;20063;-75
2023/09/13 01:10:37;;;;;;;2.35;1.70;;;26.80;93.00;;;;;;10030448;28;20049;-76
2023/09/13 01:15:31;;;;;;;2.58;1.77;;;26.70;93.10;;;;;;10022082;28;20048;-75
2023/09/13 01:21:05;;;;;;;4.22;1.77;;;26.80;93.00;;;;;;10014518;28;20455;-72
2023/09/13 01:26:11;;;;;;;2.00;1.70;;;26.70;93.30;;;;;;10016487;28;20032;-74
2023/09/13 01:31:07;;;;;;;3.17;1.98;;;26.50;93.40;;;;;;10059171;28;20079;-75
2023/09/13 01:35:58;;;;;;;3.33;1.98;;;26.60;93.30;;;;;;10049398;28;20025;-74
2023/09/13 01:40:51;;;;;;;4.50;2.13;;;26.50;93.50;;;;;;10036385;28;20014;-76
2023/09/13 01:45:42;;;;;;;2.78;1.75;;;26.50;93.50;;;;;;10023287;28;20120;-75
2023/09/13 01:50:35;;;;;;;2.22;1.80;;;26.40;93.70;;;;;;10025603;28;20432;-75
2023/09/13 01:55:25;;;;;;;4.18;2.60;;;26.40;93.80;;;;;;10012975;28;20036;-74
2023/09/13 02:00:16;;;;;;;1.90;1.48;;;26.30;93.80;;;;;;10002844;28;20029;-74
2023/09/13 02:05:07;;;;;;;3.45;1.98;;;26.30;93.90;;;;;;10037150;28;20053;-74
2023/09/13 02:09:57;;;;;;;3.53;1.95;;;26.30;93.80;;;;;;10044170;28;20144;-73
2023/09/13 02:14:48;;;;;;;1.88;1.55;;;26.20;94.00;;;;;;10031531;28;20045;-75
2023/09/13 02:19:39;;;;;;;3.63;2.15;;;26.10;94.10;;;;;;10034648;28;20836;-77
2023/09/13 02:24:31;;;;;;;2.25;1.70;;;25.90;94.30;;;;;;10024936;28;20097;-74
2023/09/13 02:29:22;;;;;;;1.92;1.65;;;26.00;94.40;;;;;;10041749;28;20413;-78
2023/09/13 02:34:13;;;;;;;3.42;2.08;;;25.90;94.60;;;;;;10049700;28;20268;-76
2023/09/13 02:39:04;;;;;;;2.80;2.00;;;25.80;94.90;;;;;;10026001;28;20553;-75
2023/09/13 02:43:54;;;;;;;3.53;2.30;;;25.80;95.10;;;;;;10044593;28;20037;-73
2023/09/13 02:48:45;;;;;;;3.03;2.28;;;25.70;95.30;;;;;;10042809;28;20041;-75
2023/09/13 02:53:36;;;;;;;4.15;3.15;;;25.70;95.50;;;;;;10035342;28;20042;-77
2023/09/13 02:58:27;;;;;;;2.95;2.08;;;25.60;95.60;;;;;;10024418;28;20368;-74
2023/09/13 03:03:17;;;;;;;3.42;2.25;;;25.50;95.90;;;;;;10028013;28;20080;-74
2023/09/13 03:08:08;;;;;;;2.47;1.60;;;25.50;96.30;;;;;;10025222;28;20026;-74
2023/09/13 03:12:59;;;;;;;4.45;2.33;;;25.40;96.40;;;;;;10029766;28;20519;-74
2023/09/13 03:17:50;;;;;;;3.70;2.00;;;25.40;96.50;;;;;;10027549;28;20546;-75
2023/09/13 03:22:41;;;;;;;2.08;1.67;;;25.20;97.10;;;;;;10025319;28;20327;-76
2023/09/13 03:27:32;;;;;;;3.15;1.70;;;25.20;97.30;;;;;;10020889;28;20670;-74
2023/09/13 03:32:23;;;;;;;2.95;1.98;;;25.20;97.50;;;;;;10036565;28;20440;-76
2023/09/13 03:37:13;;;;;;;4.47;2.28;;;25.30;97.50;;;;;;10043580;28;20038;-76
2023/09/13 03:42:04;;;;;;;2.97;2.00;;;25.20;97.70;;;;;;10045753;28;20476;-75
2023/09/13 03:46:55;;;;;;;3.35;2.47;;;25.30;97.70;;;;;;10037717;28;20030;-75
2023/09/13 03:51:46;;;;;;;4.03;2.13;;;25.10;98.00;;;;;;10033023;28;20405;-76
2023/09/13 03:56:37;;;;;;;5.05;3.42;;;25.20;98.00;;;;;;10034014;28;20042;-76
2023/09/13 04:01:28;;;;;;;7.63;2.40;;;25.10;98.30;;;;;;10038350;28;20053;-75
2023/09/13 04:06:18;;;;;;;3.53;2.55;;;25.10;98.50;;;;;;10042104;28;20056;-76
2023/09/13 04:11:09;;;;;;;3.83;2.35;;;25.20;98.50;;;;;;10038783;28;20026;-75
2023/09/13 04:16:01;;;;;;;3.38;2.30;;;25.20;98.70;;;;;;10029357;28;20046;-73
2023/09/13 04:20:53;;;;;;;6.57;2.15;;;25.10;98.80;;;;;;10025876;28;20025;-74
2023/09/13 04:25:44;;;;;;;3.33;2.30;;;25.00;98.90;;;;;;10020562;28;20026;-75
2023/09/13 04:30:34;;;;;;;2.53;1.98;;;24.90;99.30;;;;;;10020239;28;20018;-73
2023/09/13 04:35:25;;;;;;;3.30;2.67;;;25.00;99.30;;;;;;10043107;28;20079;-73
2023/09/13 04:40:15;;;;;;;3.40;2.33;;;25.00;99.40;;;;;;10045793;28;20216;-73
2023/09/13 04:45:07;;;;;;;4.25;1.95;;;24.90;99.50;;;;;;10034415;28;20025;-73
2023/09/13 04:49:57;;;;;;;3.35;2.17;;;24.90;99.60;;;;;;10033578;28;20108;-74
2023/09/13 04:54:48;;;;;;;2.67;2.10;;;24.90;99.60;;;;;;10009728;28;20140;-75
2023/09/13 04:59:49;;;;;;;4.90;2.53;;;24.90;99.60;;;;;;10023094;28;20025;-75
2023/09/13 05:04:40;;;;;;;3.22;1.90;;;24.90;99.50;;;;;;10007029;28;20058;-76
2023/09/13 05:09:31;;;;;;;3.00;1.95;;;24.80;99.60;;;;;;10010836;28;20570;-76
2023/09/13 05:14:22;;;;;;;3.22;1.95;;;24.80;99.70;;;;;;10030898;28;20491;-75
2023/09/13 05:19:13;;;;;;;4.18;2.55;;;24.70;99.90;;;;;;10025760;28;20583;-74
2023/09/13 05:24:04;;;;;;;4.18;2.63;;;24.70;99.80;;;;;;10020317;28;20052;-75
2023/09/13 05:28:54;;;;;;;3.55;2.20;;;24.70;99.90;;;;;;10017237;28;20115;-75
2023/09/13 05:33:45;;;;;;;3.15;2.60;;;24.70;99.90;;;;;;10011914;28;20141;-73
2023/09/13 05:38:36;;;;;;;2.97;2.25;;;24.70;99.90;;;;;;10042944;28;20125;-75
2023/09/13 05:43:28;;;;;;;4.18;2.75;;;24.60;99.90;;;;;;10033044;28;20041;-75
2023/09/13 05:48:19;;;;;;;5.60;3.15;;;24.80;99.90;;;;;;10031307;28;20029;-75
2023/09/13 05:53:10;;;;;;;4.10;3.08;;;24.60;99.90;;;;;;10027646;28;20041;-78
2023/09/13 05:58:01;;;;;;;4.05;2.90;;;24.60;99.90;;;;;;10036222;28;20018;-75
2023/09/13 06:02:51;;;;;;;3.75;3.03;;;24.60;99.90;;;;;;10044746;28;21530;-73
2023/09/13 06:07:42;;;;;;;4.32;2.80;;;24.60;99.90;;;;;;10032961;28;20037;-76
2023/09/13 06:12:33;;;;;;;4.35;3.10;;;24.60;99.90;;;;;;10034875;28;20033;-76
2023/09/13 06:17:24;;;;;;;3.72;2.55;;;24.50;99.90;;;;;;10034152;28;20037;-74
2023/09/13 06:22:17;;;;;;;5.53;2.92;;;24.40;99.90;;;;;;10019180;28;20029;-75
2023/09/13 06:27:07;;;;;;;3.92;2.42;;;24.50;99.90;;;;;;10036577;28;20488;-74
2023/09/13 06:31:58;;;;;;;4.65;2.70;;;24.40;99.90;;;;;;10037762;28;20025;-74
2023/09/13 06:36:48;;;;;;;3.17;2.35;;;24.30;99.90;;;;;;10038462;28;20041;-74
2023/09/13 06:41:39;;;;;;;3.88;2.80;;;24.50;99.90;;;;;;10039428;28;20018;-75
2023/09/13 06:46:30;;;;;;;3.92;3.10;;;24.30;99.90;;;;;;10038461;28;20025;-75
2023/09/13 06:51:20;;;;;;;3.22;2.50;;;24.10;99.90;;;;;;10029014;28;20026;-75
2023/09/13 06:56:11;;;;;;;4.28;2.55;;;24.10;99.90;;;;;;10036606;28;20041;-76
2023/09/13 07:01:02;;;;;;;4.13;2.88;;;24.20;99.90;;;;;;10045480;28;20026;-74
2023/09/13 07:05:52;;;;;;;3.80;2.60;;;23.90;99.90;;;;;;10014811;28;20384;-76
2023/09/13 07:10:43;;;;;;;4.55;3.00;;;24.00;99.90;;;;;;10023543;28;20373;-76
2023/09/13 07:15:34;;;;;;;4.35;2.03;;;24.10;99.90;;;;;;10034196;28;20487;-74
2023/09/13 07:20:25;;;;;;;4.00;2.15;;;24.20;99.90;;;;;;10028684;28;20039;-75
2023/09/13 07:25:15;;;;;;;3.55;2.25;;;24.30;99.90;;;;;;10022521;28;20029;-74
2023/09/13 07:30:09;;;;;;;4.00;2.63;;;24.30;99.90;;;;;;10040188;28;20022;-75
2023/09/13 07:35:00;;;;;;;3.13;2.22;;;24.10;99.90;;;;;;10045704;28;20253;-74
2023/09/13 07:39:51;;;;;;;4.43;2.80;;;24.20;99.90;;;;;;10040479;28;20743;-74
2023/09/13 07:44:41;;;;;;;3.75;2.70;;;24.20;99.90;;;;;;10071628;22;20057;-77
2023/09/13 07:49:32;;;;;;;4.63;3.25;;;24.20;99.90;;;;;;10064843;28;20021;-79
2023/09/13 07:54:23;;;;;;;5.05;3.90;;;24.10;99.90;;;;;;10060626;28;20033;-77
2023/09/13 07:59:15;;;;;;;5.05;3.45;;;24.10;99.90;;;;;;10084337;28;20128;-76
2023/09/13 08:04:06;;;;;;;5.75;3.45;;;24.00;99.90;;;;;;10074333;28;20032;-76
2023/09/13 08:08:58;;;;;;;4.85;3.03;;;24.10;99.90;;;;;;10074103;28;20127;-74
2023/09/13 08:13:49;;;;;;;5.35;3.25;;;24.00;99.90;;;;;;10065515;28;20537;-73
2023/09/13 08:18:39;;;;;;;5.38;3.72;;;24.00;99.90;;;;;;10061173;28;20033;-78
2023/09/13 08:23:30;;;;;;;5.28;3.20;;;24.20;99.90;;;;;;10065770;28;20030;-74
2023/09/13 08:28:21;;;;;;;5.65;3.53;;;24.20;99.90;;;;;;10059959;28;20490;-76
2023/09/13 08:33:12;;;;;;;5.40;3.65;;;24.20;99.90;;;;;;10081380;28;20156;-75
2023/09/13 08:38:03;;;;;;;5.65;3.65;;;24.00;99.90;;;;;;10066345;28;20058;-74
2023/09/13 08:42:56;;;;;;;5.25;3.70;;;24.20;99.90;;;;;;10069877;28;20049;-76
2023/09/13 08:47:48;;;;;;;6.13;3.55;;;24.20;99.90;;;;;;10064840;28;20021;-77
2023/09/13 08:52:42;;;;;;;6.38;4.10;;;24.30;99.90;;;;;;10060078;28;20503;-75
2023/09/13 08:57:34;;;;;;;5.28;3.45;;;24.40;99.90;;;;;;10076406;28;20061;-75
2023/09/13 09:02:27;;;;;;;5.60;3.47;;;24.50;99.90;;;;;;10074191;28;20067;-77
2023/09/13 09:07:19;;;;;;;8.25;3.58;;;24.30;99.90;;;;;;10070143;28;20491;-78
2023/09/13 09:12:12;;;;;;;4.95;3.33;;;24.30;99.90;;;;;;10063906;28;20021;-78
2023/09/13 09:17:04;;;;;;;5.68;3.67;;;24.20;99.90;;;;;;10060711;28;20045;-71
2023/09/13 09:21:58;;;;;;;4.43;3.15;;;24.40;99.90;;;;;;10092048;28;20021;-73
2023/09/13 09:26:50;;;;;;;4.78;3.45;;;24.50;99.90;;;;;;10070324;28;20033;-76
2023/09/13 09:31:41;;;;;;;3.42;3.00;;;24.50;99.90;;;;;;10082861;28;20038;-74
2023/09/13 09:36:42;;;;;;;3.63;2.83;;;24.60;99.90;;;;;;10072317;28;20052;-73
2023/09/13 09:41:38;;;;;;;4.13;3.30;;;24.70;99.90;;;;;;10069919;28;20467;-75
2023/09/13 09:46:30;;;;;;;5.00;3.00;;;24.70;99.90;;;;;;10066115;28;20029;-74
2023/09/13 09:51:21;;;;;;;5.57;2.78;;;24.70;99.90;;;;;;10065229;28;20159;-71
2023/09/13 09:56:13;;;;;;;4.20;3.05;;;24.70;99.90;;;;;;10088752;28;20507;-72
2023/09/13 10:01:04;;;;;;;5.05;3.10;;;24.80;99.90;;;;;;10084489;28;20301;-72
2023/09/13 10:06:12;;;;;;;2.97;1.95;;;24.80;99.90;;;;;;10079967;28;20025;-78
2023/09/13 10:11:04;;;;;;;3.00;2.70;;;24.70;99.90;;;;;;10074156;28;20027;-77
2023/09/13 10:15:55;;;;;;;3.33;2.55;;;24.70;99.90;;;;;;10066906;28;20073;-75
2023/09/13 10:20:46;;;;;;;2.47;1.98;;;24.90;99.90;;;;;;10079049;28;20021;-74
2023/09/13 10:25:38;;;;;;;3.30;2.00;;;24.80;99.90;;;;;;10084358;28;20046;-74
2023/09/13 10:30:32;;;;;;;4.38;2.42;;;24.80;99.90;;;;;;10083144;28;20021;-71
2023/09/13 10:35:25;;;;;;;5.05;2.22;;;24.90;99.90;;;;;;10082010;28;20891;-75
2023/09/13 10:40:34;;;;;;;5.55;3.22;;;24.80;99.90;;;;;;10069483;28;20467;-74
2023/09/13 10:45:25;;;;;;;3.15;1.92;;;25.00;99.90;;;;;;10064686;28;20729;-77
2023/09/13 10:50:17;;;;;;;2.70;2.00;;;24.90;99.90;;;;;;10070337;28;20430;-80
2023/09/13 10:55:09;;;;;;;4.47;1.80;;;24.90;99.90;;;;;;10085889;28;20078;-78
2023/09/13 11:00:05;;;;;;;2.60;1.70;;;25.00;99.90;;;;;;10082586;28;20018;-77
2023/09/13 11:04:57;;;;;;;3.78;2.00;;;25.00;99.90;;;;;;10074396;28;20060;-76
2023/09/13 11:09:47;;;;;;;3.20;1.80;;;25.20;99.90;;;;;;10071449;28;20030;-76
2023/09/13 11:14:46;;;;;;;3.70;2.28;;;25.20;99.90;;;;;;10065281;28;20033;-79
2023/09/13 11:19:37;;;;;;;3.08;1.95;;;25.10;99.90;;;;;;10063245;28;20495;-75
2023/09/13 11:24:43;;;;;;;12.40;2.10;;;25.10;99.90;;;;;;10081427;28;20075;-73
2023/09/13 11:29:51;;;;;;;3.75;1.88;;;25.10;99.90;;;;;;10049539;28;20315;-74
2023/09/13 11:34:42;;;;;;;3.05;1.67;;;24.90;99.90;;;;;;10062885;28;20132;-71
2023/09/13 11:39:33;;;;;;;3.55;1.65;;;24.90;99.70;;;;;;10073346;28;20044;-75
2023/09/13 11:44:24;;;;;;;1.70;1.35;;;25.00;99.50;;;;;;10063171;28;20499;-78
2023/09/13 11:49:24;;;;;;;2.25;1.38;;;25.10;99.40;;;;;;10062541;28;20415;-78
2023/09/13 11:54:15;;;;;;;1.55;1.40;;;25.40;99.10;;;;;;10086398;28;20446;-77
2023/09/13 11:59:06;;;;;;;4.30;2.08;;;25.20;99.00;;;;;;10076432;28;20116;-75
2023/09/13 12:04:01;;;;;;;3.33;1.80;;;25.30;98.80;;;;;;10074443;28;20100;-75
2023/09/13 12:08:55;;;;;;;3.03;1.63;;;25.30;98.60;;;;;;10066318;28;20017;-72
2023/09/13 12:13:52;;;;;;;5.13;1.88;;;25.20;98.50;;;;;;10060207;28;20569;-78
2023/09/13 12:18:44;;;;;;;2.22;1.42;;;25.30;98.50;;;;;;10087054;28;20029;-78
2023/09/13 12:23:43;;;;;;;2.00;1.45;;;25.40;98.40;;;;;;10080463;28;20084;-72
2023/09/13 12:28:35;;;;;;;1.75;1.30;;;25.40;98.20;;;;;;10086097;28;20029;-78
2023/09/13 12:33:26;;;;;;;2.00;1.30;;;25.20;98.20;;;;;;10076993;28;20041;-78
2023/09/13 12:38:19;;;;;;;2.83;2.03;;;25.30;98.00;;;;;;10072879;28;20028;-79
2023/09/13 12:43:10;;;;;;;4.78;1.70;;;25.40;97.90;;;;;;10070308;28;20099;-71
2023/09/13 12:48:00;;;;;;;2.40;1.70;;;25.40;97.80;;;;;;10065249;28;20101;-76
2023/09/13 12:52:54;;;;;;;2.30;1.60;;;25.40;97.80;;;;;;10062723;28;20095;-77
2023/09/13 12:57:45;;;;;;;4.35;1.65;;;25.40;97.80;;;;;;10077094;28;20074;-79
2023/09/13 13:02:36;;;;;;;2.67;1.20;;;25.50;97.70;;;;;;10076685;28;20380;-77
2023/09/13 13:07:33;;;;;;;4.20;2.05;;;25.40;97.90;;;;;;10074340;28;20033;-78
2023/09/13 13:12:24;;;;;;;4.07;1.75;;;25.50;97.90;;;;;;10072449;28;20084;-77
2023/09/13 13:17:15;;;;;;;2.63;1.73;;;25.50;97.70;;;;;;10058662;28;20056;-76
2023/09/13 13:22:11;;;;;;;2.00;1.50;;;25.50;97.90;;;;;;10079344;28;20025;-78
2023/09/13 13:27:02;;;;;;;2.25;1.45;;;25.50;97.80;;;;;;10082397;28;20263;-76
2023/09/13 13:31:53;;;;;;;2.55;2.10;;;25.50;97.80;;;;;;10062701;28;20037;-77
2023/09/13 13:36:44;;;;;;;2.83;1.60;;;25.50;97.60;;;;;;10063224;28;20038;-73
2023/09/13 13:41:34;;;;;;;3.35;1.55;;;25.60;97.50;;;;;;10067797;28;20353;-77
2023/09/13 13:46:25;;;;;;;3.00;1.80;;;25.70;97.50;;;;;;10061923;28;20080;-78
2023/09/13 13:51:18;;;;;;;2.95;2.10;;;25.70;97.40;;;;;;10060176;28;20105;-74
2023/09/13 13:56:09;;;;;;;3.08;1.85;;;25.70;97.30;;;;;;10067530;28;20042;-77
2023/09/13 14:01:03;;;;;;;2.95;1.80;;;25.50;97.40;;;;;;10076628;28;20083;-74
2023/09/13 14:06:14;;;;;;;5.88;1.77;;;25.50;97.30;;;;;;10104640;28;20392;-78
2023/09/13 14:11:04;;;;;;;2.22;1.45;;;25.50;97.20;;;;;;10091267;28;20029;-79
2023/09/13 14:15:55;;;;;;;6.85;1.60;;;25.40;97.30;;;;;;10075454;28;20037;-77
2023/09/13 14:20:46;;;;;;;2.28;1.48;;;25.40;96.70;;;;;;10072879;28;20029;-78
2023/09/13 14:25:37;;;;;;;2.35;1.60;;;25.50;96.60;;;;;;10084224;28;20428;-78
2023/09/13 14:30:28;;;;;;;2.17;1.50;;;25.40;96.40;;;;;;10091130;28;20033;-75
2023/09/13 14:35:19;;;;;;;2.78;2.17;;;25.50;96.20;;;;;;10076835;28;20025;-76
2023/09/13 14:40:10;;;;;;;3.95;1.52;;;25.50;96.20;;;;;;10087154;28;20021;-76
2023/09/13 14:45:00;;;;;;;4.22;1.55;;;25.60;96.10;;;;;;10083826;28;20033;-78
2023/09/13 14:49:51;;;;;;;2.55;1.88;;;25.60;96.00;;;;;;10087440;28;20032;-73
2023/09/13 14:54:42;;;;;;;1.95;1.38;;;25.70;96.00;;;;;;10089228;28;20040;-77
2023/09/13 14:59:32;;;;;;;2.15;1.45;;;25.70;96.00;;;;;;10087749;28;20418;-78
2023/09/13 15:04:26;;;;;;;2.83;1.50;;;25.50;96.10;;;;;;10085797;28;20053;-79
2023/09/13 15:09:17;;;;;;;4.15;2.33;;;25.80;96.10;;;;;;10082503;28;20025;-78
2023/09/13 15:14:08;;;;;;;2.78;1.92;;;26.00;96.10;;;;;;10072094;28;20452;-77
2023/09/13 15:19:00;;;;;;;2.25;1.30;;;26.20;96.10;;;;;;10046954;28;20399;-78
2023/09/13 15:23:51;;;;;;;4.55;1.42;;;26.60;95.90;;;;;;10061036;28;20108;-75
2023/09/13 15:28:45;;;;;;;1.83;1.40;;;26.40;95.90;;;;;;10052154;28;20029;-76
2023/09/13 15:33:36;;;;;;;2.92;2.00;;;26.40;95.90;;;;;;10056636;28;20068;-74
2023/09/13 15:38:27;;;;;;;2.28;1.70;;;26.50;95.90;;;;;;10051020;28;20026;-77
2023/09/13 15:43:20;;;;;;;3.38;1.65;;;26.50;95.90;;;;;;10051146;28;20386;-78
2023/09/13 15:48:11;;;;;;;2.47;1.48;;;26.80;95.90;;;;;;10059126;28;20025;-72
2023/09/13 15:53:02;;;;;;;3.22;1.95;;;27.40;95.60;;;;;;10059850;28;20472;-75
2023/09/13 15:57:52;;;;;;;2.72;1.63;;;27.20;95.60;;;;;;10050821;28;20066;-75
2023/09/13 16:02:43;;;;;;;2.03;1.58;;;26.90;95.60;;;;;;10056789;28;20455;-77
2023/09/13 16:07:35;;;;;;;2.72;1.65;;;26.60;95.60;;;;;;10059080;28;20403;-77
2023/09/13 16:12:26;;;;;;;2.65;1.50;;;26.40;95.80;;;;;;10059416;28;20395;-77
2023/09/13 16:17:17;;;;;;;1.75;1.45;;;26.20;95.80;;;;;;10057256;28;20025;-73
2023/09/13 16:22:08;;;;;;;2.47;1.70;;;26.10;95.70;;;;;;10058879;28;20514;-78
2023/09/13 16:26:58;;;;;;;2.60;1.30;;;26.10;95.70;;;;;;10041465;28;20112;-78
2023/09/13 16:31:49;;;;;;;1.42;1.13;;;26.00;95.60;;;;;;10053693;28;20030;-75
2023/09/13 16:36:40;;;;;;;3.53;1.63;;;26.00;95.40;;;;;;10055408;28;20552;-73
2023/09/13 16:41:31;;;;;;;4.38;1.80;;;26.00;95.40;;;;;;10045075;28;20105;-78
2023/09/13 16:46:22;;;;;;;4.95;1.80;;;26.10;95.30;;;;;;10042741;28;20479;-78
2023/09/13 16:51:12;;;;;;;1.70;1.33;;;26.00;95.30;;;;;;10062391;28;20414;-76
2023/09/13 16:56:04;;;;;;;2.85;1.35;;;26.00;95.20;;;;;;10055067;28;20029;-75
2023/09/13 17:00:56;;;;;;;2.47;1.60;;;25.90;95.10;;;;;;10049218;28;20041;-73
2023/09/13 17:05:47;;;;;;;2.38;1.55;;;25.80;95.10;;;;;;10054915;28;20049;-75
2023/09/13 17:10:37;;;;;;;2.22;1.40;;;25.90;95.10;;;;;;10051670;28;20021;-77
2023/09/13 17:15:29;;;;;;;2.55;1.77;;;25.90;95.10;;;;;;10057359;28;20037;-79
2023/09/13 17:20:19;;;;;;;2.60;1.77;;;25.90;95.10;;;;;;10042835;28;20033;-74
2023/09/13 17:25:10;;;;;;;4.53;2.30;;;25.80;95.10;;;;;;10030561;28;20040;-75
2023/09/13 17:30:02;;;;;;;2.17;1.60;;;25.90;94.90;;;;;;10053797;28;20033;-75
2023/09/13 17:34:52;;;;;;;3.47;1.67;;;25.90;94.90;;;;;;10045968;28;20026;-77
2023/09/13 17:39:43;;;;;;;2.63;1.20;;;25.90;94.80;;;;;;10046912;28;20396;-78
2023/09/13 17:44:49;;;;;;;5.05;1.73;;;25.90;94.60;;;;;;10051280;28;20415;-78
2023/09/13 17:49:39;;;;;;;2.22;1.42;;;25.90;94.40;;;;;;10045425;28;20025;-74
2023/09/13 17:54:35;;;;;;;3.53;1.92;;;25.80;94.50;;;;;;10054608;28;20022;-78
2023/09/13 17:59:27;;;;;;;3.35;1.58;;;25.80;94.40;;;;;;10047287;28;20028;-77
2023/09/13 18:04:18;;;;;;;2.85;1.35;;;25.80;94.30;;;;;;10040165;28;20049;-75
2023/09/13 18:09:09;;;;;;;3.55;2.05;;;25.70;94.40;;;;;;10056404;28;20476;-73
2023/09/13 18:14:00;;;;;;;2.75;1.52;;;25.70;94.20;;;;;;10055694;28;20025;-76
2023/09/13 18:18:51;;;;;;;4.95;1.50;;;25.70;94.10;;;;;;10054693;28;20021;-78
2023/09/13 18:23:42;;;;;;;5.32;1.83;;;25.60;94.20;;;;;;10054520;28;20049;-79
2023/09/13 18:28:33;;;;;;;4.85;2.00;;;25.60;94.30;;;;;;10049923;28;20033;-77
2023/09/13 18:33:24;;;;;;;2.80;1.63;;;25.40;94.30;;;;;;10045496;28;20022;-76
2023/09/13 18:38:15;;;;;;;3.38;1.90;;;25.40;94.20;;;;;;10053210;28;20033;-80
2023/09/13 18:43:05;;;;;;;4.47;1.92;;;25.60;94.10;;;;;;10049735;28;20491;-77
2023/09/13 18:47:56;;;;;;;2.67;2.28;;;25.50;94.00;;;;;;10038687;28;20105;-77
2023/09/13 18:52:47;;;;;;;3.63;2.15;;;25.40;94.10;;;;;;10059069;28;20034;-77
2023/09/13 18:57:38;;;;;;;7.70;2.40;;;25.50;94.00;;;;;;10050086;28;20022;-77
2023/09/13 19:02:29;;;;;;;3.90;2.05;;;25.50;94.00;;;;;;10053961;28;20056;-78
2023/09/13 19:07:21;;;;;;;6.43;2.50;;;25.40;94.00;;;;;;10056276;28;20018;-79
2023/09/13 19:12:17;;;;;;;3.17;1.80;;;25.40;94.10;;;;;;10063770;28;20021;-77
2023/09/13 19:17:08;;;;;;;3.45;1.58;;;25.40;94.10;;;;;;10052261;28;20502;-76
2023/09/13 19:21:59;;;;;;;3.92;2.03;;;25.40;94.10;;;;;;10063400;28;20037;-75
2023/09/13 19:26:49;;;;;;;5.38;1.52;;;25.40;94.20;;;;;;10055712;28;20022;-76
2023/09/13 19:31:40;;;;;;;4.70;2.00;;;25.40;94.20;;;;;;10057130;28;20398;-77
2023/09/13 19:36:31;;;;;;;4.78;2.05;;;25.30;94.30;;;;;;10059493;28;20489;-78
2023/09/13 19:41:22;;;;;;;2.88;1.63;;;25.20;94.20;;;;;;10059223;28;20022;-77
2023/09/13 19:46:14;;;;;;;5.70;2.30;;;25.30;94.00;;;;;;10054761;28;20036;-78
2023/09/13 19:51:05;;;;;;;3.45;1.85;;;25.20;94.10;;;;;;10055790;28;20076;-74
2023/09/13 19:56:03;;;;;;;3.20;1.90;;;25.30;94.10;;;;;;10049607;28;20177;-75
2023/09/13 20:01:12;;;;;;;4.00;1.77;;;25.20;94.10;;;;;;10045866;28;20142;-76
2023/09/13 20:06:10;;;;;;;2.20;1.40;;;25.20;94.10;;;;;;10046552;28;20053;-77
2023/09/13 20:11:01;;;;;;;2.67;1.60;;;25.10;94.10;;;;;;10020272;28;20103;-72
2023/09/13 20:15:53;;;;;;;19.92;2.75;;;25.10;94.30;;;;;;10047419;28;20030;-75
2023/09/13 20:20:44;;;;;;;4.65;1.92;;;25.20;94.20;;;;;;10043499;28;20030;-77
2023/09/13 20:25:36;;;;;;;5.60;2.25;;;25.20;94.20;;;;;;10040912;28;20037;-75
2023/09/13 20:30:27;;;;;;;10.10;3.13;;;25.10;94.30;;;;;;10060304;28;20551;-75
2023/09/13 20:35:18;;;;;;;3.42;2.08;;;25.10;94.20;;;;;;10055845;28;20120;-79
2023/09/13 20:40:10;;;;;;;4.75;2.00;;;25.10;94.30;;;;;;10054138;28;20116;-76
2023/09/13 20:45:00;;;;;;;4.97;3.08;;;24.90;94.90;;;;;;10039473;28;20042;-76
2023/09/13 20:49:51;;;;;;;2.72;1.95;;;25.00;94.80;;;;;;10052840;28;20403;-81
2023/09/13 20:54:42;;;;;;;2.65;1.90;;;24.90;95.10;;;;;;10036517;28;20535;-78
2023/09/13 20:59:36;;;;;;;3.75;2.05;;;24.80;95.50;;;;;;10055159;28;20033;-79
2023/09/13 21:04:26;;;;;;;3.83;1.88;;;24.90;95.80;;;;;;10054855;28;20099;-77
2023/09/13 21:09:17;;;;;;;4.63;2.13;;;24.80;96.20;;;;;;10054108;28;20076;-75
2023/09/13 21:14:09;;;;;;;3.45;2.15;;;24.80;96.30;;;;;;10058264;28;20518;-77
2023/09/13 21:19:02;;;;;;;3.30;2.10;;;24.70;96.90;;;;;;10041467;28;20121;-76
2023/09/13 21:23:53;;;;;;;4.40;2.37;;;24.50;97.20;;;;;;10042217;28;20034;-75
2023/09/13 21:28:45;;;;;;;3.22;2.05;;;24.60;97.30;;;;;;10059220;28;20026;-76
2023/09/13 21:33:36;;;;;;;3.42;2.08;;;24.30;97.80;;;;;;10054216;28;20630;-77
2023/09/13 21:38:27;;;;;;;2.95;1.80;;;24.10;98.40;;;;;;10054047;28;20041;-78
2023/09/13 21:43:19;;;;;;;4.68;2.58;;;24.10;98.90;;;;;;10040994;28;20041;-77
2023/09/13 21:48:10;;;;;;;3.85;3.15;;;24.10;99.00;;;;;;10051343;28;20542;-75
2023/09/13 21:53:00;;;;;;;3.78;2.13;;;24.00;99.40;;;;;;10058507;28;20026;-79
2023/09/13 21:57:51;;;;;;;5.30;2.63;;;24.10;99.50;;;;;;10055860;28;20029;-78
2023/09/13 22:02:45;;;;;;;3.38;2.58;;;24.00;99.70;;;;;;10041538;28;20462;-78
2023/09/13 22:07:36;;;;;;;5.00;2.37;;;24.10;99.80;;;;;;10056940;28;20056;-77
2023/09/13 22:12:26;;;;;;;4.28;2.30;;;24.00;99.90;;;;;;10056586;28;20055;-76
2023/09/13 22:17:17;;;;;;;4.05;2.15;;;23.90;99.90;;;;;;10030283;28;20030;-76
2023/09/13 22:22:11;;;;;;;3.53;2.28;;;23.80;99.90;;;;;;10054628;28;20033;-77
2023/09/13 22:27:02;;;;;;;5.70;2.75;;;23.90;99.90;;;;;;10055818;28;20022;-73
2023/09/13 22:31:52;;;;;;;4.65;2.70;;;23.90;99.90;;;;;;10057480;28;20318;-74
2023/09/13 22:36:47;;;;;;;3.65;2.08;;;23.80;99.90;;;;;;10056600;28;20026;-75
2023/09/13 22:41:40;;;;;;;4.72;2.70;;;23.80;99.90;;;;;;10045562;28;20038;-77
2023/09/13 22:46:30;;;;;;;4.45;2.45;;;23.70;99.90;;;;;;10053642;28;20025;-72
2023/09/13 22:51:21;;;;;;;3.92;2.60;;;23.60;99.90;;;;;;10062861;28;20522;-72
2023/09/13 22:56:11;;;;;;;3.42;1.90;;;23.50;99.90;;;;;;10062531;28;20049;-71
2023/09/13 23:01:09;;;;;;;2.92;2.40;;;23.50;99.90;;;;;;10053771;28;20026;-71
2023/09/13 23:06:00;;;;;;;3.63;2.33;;;23.50;99.90;;;;;;10061675;28;20049;-71
2023/09/13 23:10:58;;;;;;;4.22;2.33;;;23.50;99.90;;;;;;10061590;28;20387;-72
2023/09/13 23:15:51;;;;;;;4.55;2.55;;;23.30;99.90;;;;;;10054461;28;20437;-72
2023/09/13 23:20:43;;;;;;;6.20;3.33;;;23.30;99.90;;;;;;10062830;28;20029;-70
2023/09/13 23:25:33;;;;;;;5.47;3.45;;;23.30;99.90;;;;;;10055170;28;20321;-71
2023/09/13 23:30:26;;;;;;;5.07;2.92;;;23.40;99.90;;;;;;10051381;28;20323;-72
2023/09/13 23:35:17;;;;;;;5.18;2.47;;;23.40;99.90;;;;;;10048953;28;20630;-71
2023/09/13 23:40:10;;;;;;;4.35;2.30;;;23.30;99.90;;;;;;10053320;28;20113;-71
2023/09/13 23:45:01;;;;;;;4.38;2.22;;;23.20;99.90;;;;;;10048191;28;20030;-71
2023/09/13 23:49:53;;;;;;;3.85;1.90;;;23.10;99.90;;;;;;10059349;28;20030;-72
2023/09/13 23:54:44;;;;;;;4.55;2.30;;;23.10;99.90;;;;;;10058919;28;20032;-72
2023/09/13 23:59:35;;;;;;;5.53;2.95;;;22.80;99.90;;;;;;10058137;28;20033;-72
